Daiyou69 — BKTQ4 — position and weather

sailwx.info

Track history (hours):
 
Tides and Currents Weather Stations Pressure Air Temp Water Temp Dewpoint Dewpoint Depression Visibility Wind Speed Wind Dir Waves Ship Positions

Daiyou69

Last reported at 2018-Jul-13 11:37 UTC. Time now 2018-Jul-22 14:39 UTC.
Position N 24°26' E 118°35'.
Warning: this ship's position is 9 days out of date.

Length 85 m; draft 3.5 m.

Type: Tanker. MMSI: 413401340.

Date/timePositionNaut miles runAvg speedWind from/ knotsBaromVisibWave heightAir tempDewpointWater temp
2018-Jul-13 11:37N 24°26' E 118°35'210.5
2018-Jul-13 11:28N 24°25' E 118°34'610.9
2018-Jul-13 10:52N 24°23' E 118°27'410.6
2018-Jul-13 10:30N 24°21' E 118°23'510.2
2018-Jul-13 10:00N 24°20' E 118°18'510.3
2018-Jul-13 09:30N 24°20' E 118°12'510.4
2018-Jul-13 09:00N 24°23' E 118°07'510.6
2018-Jul-13 08:30N 24°27' E 118°03'5 9.1
2018-Jul-13 08:00N 24°31' E 118°05'1 3.0
2018-Jul-13 07:31N 24°32' E 118°05'0 0.0
2018-Jul-13 07:00N 24°32' E 118°05'0 0.0
2018-Jul-13 06:27N 24°32' E 118°05'0 0.0
2018-Jul-13 06:00N 24°32' E 118°05'0 0.0
2018-Jul-13 05:30N 24°32' E 118°05'0 0.0
2018-Jul-13 05:00N 24°32' E 118°05'0 0.0
2018-Jul-13 04:27N 24°32' E 118°05'0 0.0
2018-Jul-13 04:00N 24°32' E 118°05'0 0.0
2018-Jul-13 03:30N 24°32' E 118°05'0 0.0
2018-Jul-13 02:57N 24°32' E 118°05'0 0.0
2018-Jul-13 02:30N 24°32' E 118°05'0 0.0
2018-Jul-13 02:00N 24°32' E 118°05'0 0.0
2018-Jul-13 01:30N 24°32' E 118°05'0 0.0
2018-Jul-13 01:00N 24°32' E 118°05'0 0.0
2018-Jul-13 00:30N 24°32' E 118°05'0 0.0
2018-Jul-12 23:54N 24°32' E 118°05'0 0.0
2018-Jul-12 23:27N 24°32' E 118°05'0 0.0
2018-Jul-12 22:45N 24°32' E 118°05'0 0.0
2018-Jul-12 22:27N 24°32' E 118°05'0 0.0
2018-Jul-12 21:57N 24°32' E 118°05'0 0.0
2018-Jul-12 21:27N 24°32' E 118°05'0 0.0
2018-Jul-12 20:57N 24°32' E 118°05'0 0.0
2018-Jul-12 20:21N 24°32' E 118°05'0 0.0
2018-Jul-12 19:57N 24°32' E 118°05'0 0.0
2018-Jul-12 19:09N 24°32' E 118°05'0 0.0
2018-Jul-12 18:51N 24°32' E 118°05'0 0.0
2018-Jul-12 18:27N 24°32' E 118°05'0 0.0
2018-Jul-12 18:00N 24°32' E 118°05'0 0.0
2018-Jul-12 17:30N 24°32' E 118°05'0 0.0
2018-Jul-12 17:00N 24°32' E 118°05'0 0.0
2018-Jul-12 16:30N 24°32' E 118°05'0 0.0
2018-Jul-12 16:00N 24°32' E 118°05'0 0.0
2018-Jul-12 15:27N 24°32' E 118°05'0 0.0
2018-Jul-12 15:00N 24°32' E 118°05'0 0.0
2018-Jul-12 14:30N 24°32' E 118°05'1 2.3
2018-Jul-12 14:01N 24°31' E 118°05'4 8.4
2018-Jul-12 13:31N 24°27' E 118°03'4 8.8
2018-Jul-12 13:00N 24°24' E 118°07'0 0.7
2018-Jul-12 12:30N 24°24' E 118°07'0 0.0
2018-Jul-12 12:00N 24°24' E 118°07'0 0.0
2018-Jul-12 11:27N 24°24' E 118°07'0 0.0
2018-Jul-12 11:00N 24°24' E 118°07'0 0.0
2018-Jul-12 10:30N 24°24' E 118°07'0 0.1
2018-Jul-12 10:00N 24°24' E 118°07'0 0.1
2018-Jul-12 09:30N 24°24' E 118°07'0 0.0
2018-Jul-12 09:00N 24°24' E 118°07'0 0.0
2018-Jul-12 08:30N 24°24' E 118°07'0 0.0
2018-Jul-12 08:00N 24°24' E 118°07'0 0.0
2018-Jul-12 07:30N 24°24' E 118°07'0 0.0
2018-Jul-12 07:00N 24°24' E 118°07'0 0.1
2018-Jul-12 06:30N 24°24' E 118°07'0 0.1
2018-Jul-12 06:00N 24°24' E 118°07'0 0.0
2018-Jul-12 05:30N 24°24' E 118°07'0 0.1
2018-Jul-12 05:00N 24°24' E 118°07'0 0.0
2018-Jul-12 04:30N 24°24' E 118°07'0 0.1
2018-Jul-12 04:00N 24°24' E 118°07'0 0.0
2018-Jul-12 03:30N 24°24' E 118°07'0 0.1
2018-Jul-12 03:00N 24°24' E 118°07'0 0.0
2018-Jul-12 02:30N 24°24' E 118°07'0 0.0
2018-Jul-12 02:00N 24°24' E 118°07'0 0.0
2018-Jul-12 01:30N 24°24' E 118°07'0 0.0
2018-Jul-12 01:00N 24°24' E 118°07'0 0.0
2018-Jul-12 00:30N 24°24' E 118°07'0 0.1
2018-Jul-12 00:00N 24°24' E 118°07'0 0.0
2018-Jul-11 23:30N 24°24' E 118°07'0 0.0
2018-Jul-11 23:00N 24°24' E 118°07'0 0.0
2018-Jul-11 22:30N 24°24' E 118°07'0 0.1
2018-Jul-11 22:00N 24°24' E 118°07'0 0.0
2018-Jul-11 21:30N 24°24' E 118°07'0 0.0
2018-Jul-11 21:00N 24°24' E 118°07'0 0.0
2018-Jul-11 20:30N 24°24' E 118°07'0 0.0
2018-Jul-11 20:00N 24°24' E 118°07'0 0.0
2018-Jul-11 19:27N 24°24' E 118°07'0 0.0
2018-Jul-11 19:00N 24°24' E 118°07'0 0.0
2018-Jul-11 18:30N 24°24' E 118°07'0 0.0
2018-Jul-11 18:00N 24°24' E 118°07'0 0.0
2018-Jul-11 17:30N 24°24' E 118°07'0 0.0
2018-Jul-11 17:00N 24°24' E 118°07'0 0.0
2018-Jul-11 16:30N 24°24' E 118°07'0 0.1
2018-Jul-11 16:00N 24°24' E 118°07'0 0.0
2018-Jul-11 15:30N 24°24' E 118°07'0 0.1
2018-Jul-11 15:00N 24°24' E 118°07'0 0.0
2018-Jul-11 14:30N 24°24' E 118°07'0 0.1
2018-Jul-11 14:00N 24°24' E 118°07'0 0.0
2018-Jul-11 13:30N 24°24' E 118°07'0 0.0
2018-Jul-11 13:00N 24°24' E 118°07'0 0.0
2018-Jul-11 12:30N 24°24' E 118°07'0 0.0
2018-Jul-11 12:00N 24°24' E 118°07'0 0.0
2018-Jul-11 11:30N 24°24' E 118°07'0 0.0
2018-Jul-11 11:00N 24°24' E 118°07'0 0.0
2018-Jul-11 10:30N 24°24' E 118°07'0 0.1
2018-Jul-11 10:00N 24°24' E 118°07'0 0.1
2018-Jul-11 09:30N 24°24' E 118°07'0 0.1
2018-Jul-11 09:00N 24°24' E 118°07'0 0.1
2018-Jul-11 08:30N 24°24' E 118°07'0 0.0
2018-Jul-11 08:00N 24°24' E 118°07'0 0.0
2018-Jul-11 07:30N 24°24' E 118°07'0 0.0
2018-Jul-11 07:00N 24°24' E 118°07'0 0.0
2018-Jul-11 06:30N 24°24' E 118°07'0 0.0
2018-Jul-11 06:00N 24°24' E 118°07'0 0.0
2018-Jul-11 05:30N 24°24' E 118°07'0 0.0
2018-Jul-11 05:00N 24°24' E 118°07'0 0.0
2018-Jul-11 04:30N 24°24' E 118°07'0 0.0
2018-Jul-11 04:00N 24°24' E 118°07'0 0.0
2018-Jul-11 03:30N 24°24' E 118°07'0 0.0
2018-Jul-11 03:00N 24°24' E 118°07'0 0.1
2018-Jul-11 02:30N 24°24' E 118°07'0 0.1
2018-Jul-11 02:00N 24°24' E 118°07'0 0.1
2018-Jul-11 01:30N 24°24' E 118°07'0 0.0
2018-Jul-11 01:00N 24°24' E 118°07'0 0.0
2018-Jul-11 00:30N 24°24' E 118°07'0 0.0
2018-Jul-11 00:00N 24°24' E 118°07'0 0.0
2018-Jul-10 23:30N 24°24' E 118°07'0 0.0
2018-Jul-10 23:00N 24°24' E 118°07'0 0.1
2018-Jul-10 22:30N 24°24' E 118°07'0 0.1
2018-Jul-10 22:00N 24°24' E 118°07'0 0.1
2018-Jul-10 21:30N 24°24' E 118°07'0 0.1
2018-Jul-10 21:00N 24°24' E 118°07'0 0.0
2018-Jul-10 20:30N 24°24' E 118°07'0 0.0
2018-Jul-10 20:00N 24°24' E 118°07'0 0.0
2018-Jul-10 19:30N 24°24' E 118°07'0 0.0
2018-Jul-10 19:00N 24°24' E 118°07'0 0.0
2018-Jul-10 18:30N 24°24' E 118°07'0 0.0
2018-Jul-10 18:00N 24°24' E 118°07'0 0.0
2018-Jul-10 17:30N 24°24' E 118°07'0 0.0
2018-Jul-10 17:00N 24°24' E 118°07'0 0.0
2018-Jul-10 16:30N 24°24' E 118°07'0 0.0
2018-Jul-10 16:00N 24°24' E 118°07'0 0.0
2018-Jul-10 15:30N 24°24' E 118°07'0 0.0
2018-Jul-10 15:00N 24°24' E 118°07'0 0.1
2018-Jul-10 14:30N 24°24' E 118°07'0 0.1
2018-Jul-10 14:00N 24°24' E 118°07'0 0.0
2018-Jul-10 13:30N 24°24' E 118°07'0 0.0
2018-Jul-10 13:00N 24°24' E 118°07'0 0.0
2018-Jul-10 12:30N 24°24' E 118°07'0 0.0
2018-Jul-10 11:57N 24°24' E 118°07'0 0.1
2018-Jul-10 11:30N 24°24' E 118°07'0 0.1
2018-Jul-10 11:00N 24°24' E 118°07'0 0.1
2018-Jul-10 10:30N 24°24' E 118°07'0 0.1
2018-Jul-10 09:57N 24°24' E 118°07'0 0.0
2018-Jul-10 09:30N 24°24' E 118°07'0 0.1
2018-Jul-10 09:00N 24°24' E 118°07'0 0.1
2018-Jul-10 08:30N 24°24' E 118°07'0 0.1
2018-Jul-10 08:00N 24°24' E 118°07'0 0.0
2018-Jul-10 07:30N 24°24' E 118°07'0 0.0
2018-Jul-10 07:00N 24°24' E 118°07'0 0.0
2018-Jul-10 06:30N 24°24' E 118°07'0 0.0
2018-Jul-10 06:00N 24°24' E 118°07'0 0.0
2018-Jul-10 05:30N 24°24' E 118°07'0 0.0
2018-Jul-10 05:00N 24°24' E 118°07'0 0.0
2018-Jul-10 04:30N 24°24' E 118°07'0 0.0
2018-Jul-10 04:00N 24°24' E 118°07'0 0.0
2018-Jul-10 03:30N 24°24' E 118°07'0 0.0
2018-Jul-10 03:00N 24°24' E 118°07'0 0.1
2018-Jul-10 02:30N 24°24' E 118°07'0 0.0
2018-Jul-10 02:00N 24°24' E 118°07'0 0.1
2018-Jul-10 01:30N 24°24' E 118°07'0 0.1
2018-Jul-10 01:00N 24°24' E 118°07'0 0.0
2018-Jul-10 00:27N 24°24' E 118°07'0 0.0
2018-Jul-10 00:00N 24°24' E 118°07'0 0.0
2018-Jul-09 23:30N 24°24' E 118°07'0 0.0
2018-Jul-09 23:00N 24°24' E 118°07'1 1.2
2018-Jul-09 22:30N 24°24' E 118°07'4 8.0
2018-Jul-09 22:00N 24°21' E 118°10'4 8.3
2018-Jul-09 21:30N 24°20' E 118°14'4 8.5
2018-Jul-09 21:00N 24°20' E 118°19'4 8.4
2018-Jul-09 20:30N 24°21' E 118°24'4 8.1
2018-Jul-09 19:59N 24°22' E 118°28'4 8.2
2018-Jul-09 19:30N 24°24' E 118°32'4 8.0
2018-Jul-09 19:00N 24°26' E 118°35'  
2018-Jul-04 10:20N 24°26' E 118°35'310.1
2018-Jul-04 10:01N 24°24' E 118°32'5 9.9
2018-Jul-04 09:30N 24°22' E 118°27'5 9.5
2018-Jul-04 08:59N 24°21' E 118°22'4 9.4
2018-Jul-04 08:30N 24°20' E 118°17'4 8.8
2018-Jul-04 08:00N 24°21' E 118°12'4 8.4
2018-Jul-04 07:30N 24°23' E 118°08'4 8.8
2018-Jul-04 07:00N 24°25' E 118°04'3 7.2
2018-Jul-04 06:31N 24°29' E 118°04'4 7.2
2018-Jul-04 05:59N 24°32' E 118°05'0 0.0
2018-Jul-04 05:29N 24°32' E 118°05'0 0.0
2018-Jul-04 04:59N 24°32' E 118°05'0 0.0
2018-Jul-04 04:29N 24°32' E 118°05'0 0.0
2018-Jul-04 03:59N 24°32' E 118°05'0 0.0
2018-Jul-04 03:29N 24°32' E 118°05'0 0.0
2018-Jul-04 02:56N 24°32' E 118°05'0 0.0
2018-Jul-04 02:26N 24°32' E 118°05'0 0.0
2018-Jul-04 01:56N 24°32' E 118°05'0 0.0
2018-Jul-04 01:26N 24°32' E 118°05'0 0.0
2018-Jul-04 00:59N 24°32' E 118°05'0 0.0
2018-Jul-04 00:26N 24°32' E 118°05'0 0.0
2018-Jul-03 23:59N 24°32' E 118°05'0 0.0
2018-Jul-03 23:29N 24°32' E 118°05'0 0.0
2018-Jul-03 22:56N 24°32' E 118°05'0 0.0
2018-Jul-03 22:26N 24°32' E 118°05'0 0.0
2018-Jul-03 21:59N 24°32' E 118°05'0 0.0
2018-Jul-03 21:29N 24°32' E 118°05'0 0.0
2018-Jul-03 20:59N 24°32' E 118°05'0 0.0
2018-Jul-03 20:29N 24°32' E 118°05'0 0.0
2018-Jul-03 19:56N 24°32' E 118°05'0 0.0
2018-Jul-03 19:29N 24°32' E 118°05'0 0.0
2018-Jul-03 18:59N 24°32' E 118°05'0 0.0
2018-Jul-03 18:29N 24°32' E 118°05'0 0.0
2018-Jul-03 17:50N 24°32' E 118°05'0 0.0
2018-Jul-03 17:29N 24°32' E 118°05'0 0.0
2018-Jul-03 16:59N 24°32' E 118°05'0 0.0
2018-Jul-03 16:20N 24°32' E 118°05'0 0.0
2018-Jul-03 15:59N 24°32' E 118°05'0 0.0
2018-Jul-03 15:29N 24°32' E 118°05'0 0.0
2018-Jul-03 14:59N 24°32' E 118°05'0 0.0
2018-Jul-03 14:26N 24°32' E 118°05'0 0.0
2018-Jul-03 13:56N 24°32' E 118°05'0 0.0
2018-Jul-03 13:29N 24°32' E 118°05'0 0.0
2018-Jul-03 12:59N 24°32' E 118°05'0 0.0
2018-Jul-03 12:29N 24°32' E 118°05'0 0.0
2018-Jul-03 11:59N 24°32' E 118°05'  
Track history (hours):
 
Tides and Currents Weather Stations Pressure Air Temp Water Temp Dewpoint Dewpoint Depression Visibility Wind Speed Wind Dir Waves Ship Positions

Daiyou69

Last reported at 2018-Jul-13 11:37 UTC. Time now 2018-Jul-22 14:39 UTC.
Position N 24°26' E 118°35'.
Warning: this ship's position is 9 days out of date.

Length 85 m; draft 3.5 m.

Type: Tanker. MMSI: 413401340.

Date/timePositionNaut miles runAvg speedWind from/ knotsBaromVisibWave heightAir tempDewpointWater temp
2018-Jul-13 11:37N 24°26' E 118°35'210.5
2018-Jul-13 11:28N 24°25' E 118°34'610.9
2018-Jul-13 10:52N 24°23' E 118°27'410.6
2018-Jul-13 10:30N 24°21' E 118°23'510.2
2018-Jul-13 10:00N 24°20' E 118°18'510.3
2018-Jul-13 09:30N 24°20' E 118°12'510.4
2018-Jul-13 09:00N 24°23' E 118°07'510.6
2018-Jul-13 08:30N 24°27' E 118°03'5 9.1
2018-Jul-13 08:00N 24°31' E 118°05'1 3.0
2018-Jul-13 07:31N 24°32' E 118°05'0 0.0
2018-Jul-13 07:00N 24°32' E 118°05'0 0.0
2018-Jul-13 06:27N 24°32' E 118°05'0 0.0
2018-Jul-13 06:00N 24°32' E 118°05'0 0.0
2018-Jul-13 05:30N 24°32' E 118°05'0 0.0
2018-Jul-13 05:00N 24°32' E 118°05'0 0.0
2018-Jul-13 04:27N 24°32' E 118°05'0 0.0
2018-Jul-13 04:00N 24°32' E 118°05'0 0.0
2018-Jul-13 03:30N 24°32' E 118°05'0 0.0
2018-Jul-13 02:57N 24°32' E 118°05'0 0.0
2018-Jul-13 02:30N 24°32' E 118°05'0 0.0
2018-Jul-13 02:00N 24°32' E 118°05'0 0.0
2018-Jul-13 01:30N 24°32' E 118°05'0 0.0
2018-Jul-13 01:00N 24°32' E 118°05'0 0.0
2018-Jul-13 00:30N 24°32' E 118°05'0 0.0
2018-Jul-12 23:54N 24°32' E 118°05'0 0.0
2018-Jul-12 23:27N 24°32' E 118°05'0 0.0
2018-Jul-12 22:45N 24°32' E 118°05'0 0.0
2018-Jul-12 22:27N 24°32' E 118°05'0 0.0
2018-Jul-12 21:57N 24°32' E 118°05'0 0.0
2018-Jul-12 21:27N 24°32' E 118°05'0 0.0
2018-Jul-12 20:57N 24°32' E 118°05'0 0.0
2018-Jul-12 20:21N 24°32' E 118°05'0 0.0
2018-Jul-12 19:57N 24°32' E 118°05'0 0.0
2018-Jul-12 19:09N 24°32' E 118°05'0 0.0
2018-Jul-12 18:51N 24°32' E 118°05'0 0.0
2018-Jul-12 18:27N 24°32' E 118°05'0 0.0
2018-Jul-12 18:00N 24°32' E 118°05'0 0.0
2018-Jul-12 17:30N 24°32' E 118°05'0 0.0
2018-Jul-12 17:00N 24°32' E 118°05'0 0.0
2018-Jul-12 16:30N 24°32' E 118°05'0 0.0
2018-Jul-12 16:00N 24°32' E 118°05'0 0.0
2018-Jul-12 15:27N 24°32' E 118°05'0 0.0
2018-Jul-12 15:00N 24°32' E 118°05'0 0.0
2018-Jul-12 14:30N 24°32' E 118°05'1 2.3
2018-Jul-12 14:01N 24°31' E 118°05'4 8.4
2018-Jul-12 13:31N 24°27' E 118°03'4 8.8
2018-Jul-12 13:00N 24°24' E 118°07'0 0.7
2018-Jul-12 12:30N 24°24' E 118°07'0 0.0
2018-Jul-12 12:00N 24°24' E 118°07'0 0.0
2018-Jul-12 11:27N 24°24' E 118°07'0 0.0
2018-Jul-12 11:00N 24°24' E 118°07'0 0.0
2018-Jul-12 10:30N 24°24' E 118°07'0 0.1
2018-Jul-12 10:00N 24°24' E 118°07'0 0.1
2018-Jul-12 09:30N 24°24' E 118°07'0 0.0
2018-Jul-12 09:00N 24°24' E 118°07'0 0.0
2018-Jul-12 08:30N 24°24' E 118°07'0 0.0
2018-Jul-12 08:00N 24°24' E 118°07'0 0.0
2018-Jul-12 07:30N 24°24' E 118°07'0 0.0
2018-Jul-12 07:00N 24°24' E 118°07'0 0.1
2018-Jul-12 06:30N 24°24' E 118°07'0 0.1
2018-Jul-12 06:00N 24°24' E 118°07'0 0.0
2018-Jul-12 05:30N 24°24' E 118°07'0 0.1
2018-Jul-12 05:00N 24°24' E 118°07'0 0.0
2018-Jul-12 04:30N 24°24' E 118°07'0 0.1
2018-Jul-12 04:00N 24°24' E 118°07'0 0.0
2018-Jul-12 03:30N 24°24' E 118°07'0 0.1
2018-Jul-12 03:00N 24°24' E 118°07'0 0.0
2018-Jul-12 02:30N 24°24' E 118°07'0 0.0
2018-Jul-12 02:00N 24°24' E 118°07'0 0.0
2018-Jul-12 01:30N 24°24' E 118°07'0 0.0
2018-Jul-12 01:00N 24°24' E 118°07'0 0.0
2018-Jul-12 00:30N 24°24' E 118°07'0 0.1
2018-Jul-12 00:00N 24°24' E 118°07'0 0.0
2018-Jul-11 23:30N 24°24' E 118°07'0 0.0
2018-Jul-11 23:00N 24°24' E 118°07'0 0.0
2018-Jul-11 22:30N 24°24' E 118°07'0 0.1
2018-Jul-11 22:00N 24°24' E 118°07'0 0.0
2018-Jul-11 21:30N 24°24' E 118°07'0 0.0
2018-Jul-11 21:00N 24°24' E 118°07'0 0.0
2018-Jul-11 20:30N 24°24' E 118°07'0 0.0
2018-Jul-11 20:00N 24°24' E 118°07'0 0.0
2018-Jul-11 19:27N 24°24' E 118°07'0 0.0
2018-Jul-11 19:00N 24°24' E 118°07'0 0.0
2018-Jul-11 18:30N 24°24' E 118°07'0 0.0
2018-Jul-11 18:00N 24°24' E 118°07'0 0.0
2018-Jul-11 17:30N 24°24' E 118°07'0 0.0
2018-Jul-11 17:00N 24°24' E 118°07'0 0.0
2018-Jul-11 16:30N 24°24' E 118°07'0 0.1
2018-Jul-11 16:00N 24°24' E 118°07'0 0.0
2018-Jul-11 15:30N 24°24' E 118°07'0 0.1
2018-Jul-11 15:00N 24°24' E 118°07'0 0.0
2018-Jul-11 14:30N 24°24' E 118°07'0 0.1
2018-Jul-11 14:00N 24°24' E 118°07'0 0.0
2018-Jul-11 13:30N 24°24' E 118°07'0 0.0
2018-Jul-11 13:00N 24°24' E 118°07'0 0.0
2018-Jul-11 12:30N 24°24' E 118°07'0 0.0
2018-Jul-11 12:00N 24°24' E 118°07'0 0.0
2018-Jul-11 11:30N 24°24' E 118°07'0 0.0
2018-Jul-11 11:00N 24°24' E 118°07'0 0.0
2018-Jul-11 10:30N 24°24' E 118°07'0 0.1
2018-Jul-11 10:00N 24°24' E 118°07'0 0.1
2018-Jul-11 09:30N 24°24' E 118°07'0 0.1
2018-Jul-11 09:00N 24°24' E 118°07'0 0.1
2018-Jul-11 08:30N 24°24' E 118°07'0 0.0
2018-Jul-11 08:00N 24°24' E 118°07'0 0.0
2018-Jul-11 07:30N 24°24' E 118°07'0 0.0
2018-Jul-11 07:00N 24°24' E 118°07'0 0.0
2018-Jul-11 06:30N 24°24' E 118°07'0 0.0
2018-Jul-11 06:00N 24°24' E 118°07'0 0.0
2018-Jul-11 05:30N 24°24' E 118°07'0 0.0
2018-Jul-11 05:00N 24°24' E 118°07'0 0.0
2018-Jul-11 04:30N 24°24' E 118°07'0 0.0
2018-Jul-11 04:00N 24°24' E 118°07'0 0.0
2018-Jul-11 03:30N 24°24' E 118°07'0 0.0
2018-Jul-11 03:00N 24°24' E 118°07'0 0.1
2018-Jul-11 02:30N 24°24' E 118°07'0 0.1
2018-Jul-11 02:00N 24°24' E 118°07'0 0.1
2018-Jul-11 01:30N 24°24' E 118°07'0 0.0
2018-Jul-11 01:00N 24°24' E 118°07'0 0.0
2018-Jul-11 00:30N 24°24' E 118°07'0 0.0
2018-Jul-11 00:00N 24°24' E 118°07'0 0.0
2018-Jul-10 23:30N 24°24' E 118°07'0 0.0
2018-Jul-10 23:00N 24°24' E 118°07'0 0.1
2018-Jul-10 22:30N 24°24' E 118°07'0 0.1
2018-Jul-10 22:00N 24°24' E 118°07'0 0.1
2018-Jul-10 21:30N 24°24' E 118°07'0 0.1
2018-Jul-10 21:00N 24°24' E 118°07'0 0.0
2018-Jul-10 20:30N 24°24' E 118°07'0 0.0
2018-Jul-10 20:00N 24°24' E 118°07'0 0.0
2018-Jul-10 19:30N 24°24' E 118°07'0 0.0
2018-Jul-10 19:00N 24°24' E 118°07'0 0.0
2018-Jul-10 18:30N 24°24' E 118°07'0 0.0
2018-Jul-10 18:00N 24°24' E 118°07'0 0.0
2018-Jul-10 17:30N 24°24' E 118°07'0 0.0
2018-Jul-10 17:00N 24°24' E 118°07'0 0.0
2018-Jul-10 16:30N 24°24' E 118°07'0 0.0
2018-Jul-10 16:00N 24°24' E 118°07'0 0.0
2018-Jul-10 15:30N 24°24' E 118°07'0 0.0
2018-Jul-10 15:00N 24°24' E 118°07'0 0.1
2018-Jul-10 14:30N 24°24' E 118°07'0 0.1
2018-Jul-10 14:00N 24°24' E 118°07'0 0.0
2018-Jul-10 13:30N 24°24' E 118°07'0 0.0
2018-Jul-10 13:00N 24°24' E 118°07'0 0.0
2018-Jul-10 12:30N 24°24' E 118°07'0 0.0
2018-Jul-10 11:57N 24°24' E 118°07'0 0.1
2018-Jul-10 11:30N 24°24' E 118°07'0 0.1
2018-Jul-10 11:00N 24°24' E 118°07'0 0.1
2018-Jul-10 10:30N 24°24' E 118°07'0 0.1
2018-Jul-10 09:57N 24°24' E 118°07'0 0.0
2018-Jul-10 09:30N 24°24' E 118°07'0 0.1
2018-Jul-10 09:00N 24°24' E 118°07'0 0.1
2018-Jul-10 08:30N 24°24' E 118°07'0 0.1
2018-Jul-10 08:00N 24°24' E 118°07'0 0.0
2018-Jul-10 07:30N 24°24' E 118°07'0 0.0
2018-Jul-10 07:00N 24°24' E 118°07'0 0.0
2018-Jul-10 06:30N 24°24' E 118°07'0 0.0
2018-Jul-10 06:00N 24°24' E 118°07'0 0.0
2018-Jul-10 05:30N 24°24' E 118°07'0 0.0
2018-Jul-10 05:00N 24°24' E 118°07'0 0.0
2018-Jul-10 04:30N 24°24' E 118°07'0 0.0
2018-Jul-10 04:00N 24°24' E 118°07'0 0.0
2018-Jul-10 03:30N 24°24' E 118°07'0 0.0
2018-Jul-10 03:00N 24°24' E 118°07'0 0.1
2018-Jul-10 02:30N 24°24' E 118°07'0 0.0
2018-Jul-10 02:00N 24°24' E 118°07'0 0.1
2018-Jul-10 01:30N 24°24' E 118°07'0 0.1
2018-Jul-10 01:00N 24°24' E 118°07'0 0.0
2018-Jul-10 00:27N 24°24' E 118°07'0 0.0
2018-Jul-10 00:00N 24°24' E 118°07'0 0.0
2018-Jul-09 23:30N 24°24' E 118°07'0 0.0
2018-Jul-09 23:00N 24°24' E 118°07'1 1.2
2018-Jul-09 22:30N 24°24' E 118°07'4 8.0
2018-Jul-09 22:00N 24°21' E 118°10'4 8.3
2018-Jul-09 21:30N 24°20' E 118°14'4 8.5
2018-Jul-09 21:00N 24°20' E 118°19'4 8.4
2018-Jul-09 20:30N 24°21' E 118°24'4 8.1
2018-Jul-09 19:59N 24°22' E 118°28'4 8.2
2018-Jul-09 19:30N 24°24' E 118°32'4 8.0
2018-Jul-09 19:00N 24°26' E 118°35'  
2018-Jul-04 10:20N 24°26' E 118°35'310.1
2018-Jul-04 10:01N 24°24' E 118°32'5 9.9
2018-Jul-04 09:30N 24°22' E 118°27'5 9.5
2018-Jul-04 08:59N 24°21' E 118°22'4 9.4
2018-Jul-04 08:30N 24°20' E 118°17'4 8.8
2018-Jul-04 08:00N 24°21' E 118°12'4 8.4
2018-Jul-04 07:30N 24°23' E 118°08'4 8.8
2018-Jul-04 07:00N 24°25' E 118°04'3 7.2
2018-Jul-04 06:31N 24°29' E 118°04'4 7.2
2018-Jul-04 05:59N 24°32' E 118°05'0 0.0
2018-Jul-04 05:29N 24°32' E 118°05'0 0.0
2018-Jul-04 04:59N 24°32' E 118°05'0 0.0
2018-Jul-04 04:29N 24°32' E 118°05'0 0.0
2018-Jul-04 03:59N 24°32' E 118°05'0 0.0
2018-Jul-04 03:29N 24°32' E 118°05'0 0.0
2018-Jul-04 02:56N 24°32' E 118°05'0 0.0
2018-Jul-04 02:26N 24°32' E 118°05'0 0.0
2018-Jul-04 01:56N 24°32' E 118°05'0 0.0
2018-Jul-04 01:26N 24°32' E 118°05'0 0.0
2018-Jul-04 00:59N 24°32' E 118°05'0 0.0
2018-Jul-04 00:26N 24°32' E 118°05'0 0.0
2018-Jul-03 23:59N 24°32' E 118°05'0 0.0
2018-Jul-03 23:29N 24°32' E 118°05'0 0.0
2018-Jul-03 22:56N 24°32' E 118°05'0 0.0
2018-Jul-03 22:26N 24°32' E 118°05'0 0.0
2018-Jul-03 21:59N 24°32' E 118°05'0 0.0
2018-Jul-03 21:29N 24°32' E 118°05'0 0.0
2018-Jul-03 20:59N 24°32' E 118°05'0 0.0
2018-Jul-03 20:29N 24°32' E 118°05'0 0.0
2018-Jul-03 19:56N 24°32' E 118°05'0 0.0
2018-Jul-03 19:29N 24°32' E 118°05'0 0.0
2018-Jul-03 18:59N 24°32' E 118°05'0 0.0
2018-Jul-03 18:29N 24°32' E 118°05'0 0.0
2018-Jul-03 17:50N 24°32' E 118°05'0 0.0
2018-Jul-03 17:29N 24°32' E 118°05'0 0.0
2018-Jul-03 16:59N 24°32' E 118°05'0 0.0
2018-Jul-03 16:20N 24°32' E 118°05'0 0.0
2018-Jul-03 15:59N 24°32' E 118°05'0 0.0
2018-Jul-03 15:29N 24°32' E 118°05'0 0.0
2018-Jul-03 14:59N 24°32' E 118°05'0 0.0
2018-Jul-03 14:26N 24°32' E 118°05'0 0.0
2018-Jul-03 13:56N 24°32' E 118°05'0 0.0
2018-Jul-03 13:29N 24°32' E 118°05'0 0.0
2018-Jul-03 12:59N 24°32' E 118°05'0 0.0
2018-Jul-03 12:29N 24°32' E 118°05'0 0.0
2018-Jul-03 11:59N 24°32' E 118°05'  

Dump ship's entire track history